KVCT/VCT METAR and TAF weather

Enter ICAO airport designator
Station Type Date Time Source
KVCT METAR 2022/08/13 10:51 UTC NOAA

KVCT 131051Z AUTO 00000KT 9SM SCT049 OVC060 24/24 A2996 RMK AO2 SLP143 T02390239


Station Type Date Time Source
KVCT Decoded METAR 2022/08/13 10:51 UTC NOAA

VICTORIA REGIONAL AIRPORT, TX, United States (KVCT) 28-52N 96-56W 31M
Aug 13, 2022 - 06:51 AM EDT / 2022.08.13 1051 UTC
Wind: Calm:0
Visibility: 9 mile(s):0
Sky conditions: overcast
Temperature: 75.0 F (23.9 C)
Dew Point: 75.0 F (23.9 C)
Relative Humidity: 100%
Pressure (altimeter): 29.96 in. Hg (1014 hPa)
ob: KVCT 131051Z AUTO 00000KT 9SM SCT049 OVC060 24/24 A2996 RMK AO2 SLP143 T02390239
cycle: 11

Station Type Date Time Source
KVCT TAF 2022/08/13 06:40 UTC NOAA

TAF KVCT 130538Z 1306/1406 VRB02KT P6SM SCT250
FM131000 36005KT P6SM VCSH SCT020 BKN035
FM131600 03008KT P6SM VCTS OVC030CB
TEMPO 1318/1322 VRB20G30KT 2SM TSRA OVC030CB
FM132300 09012KT P6SM SCT040 BKN200
FM140200 16008KT P6SM VCSH OVC025
TEMPO 1405/1406 2SM SHRA OVC015

Example: see airport list